Time;durP1;ratioP1;P1;durP2;ratioP2;P2;SDS_P1;SDS_P2;PMS_P1;PMS_P2;Temp;Humidity;BMP_temperature;BMP_pressure;BME280_temperature;BME280_humidity;BME280_pressure;Samples;Min_cycle;Max_cycle;Signal;HPM_P1;HPM_P2
2022/10/08 00:01:14;;;;;;;7.33;5.90;;;;;;;13.86;73.97;99099.06;5135902;27;39930;-79
2022/10/08 00:03:45;;;;;;;6.93;5.43;;;;;;;13.89;74.10;99098.00;5135887;27;41727;-80
2022/10/08 00:06:14;;;;;;;6.23;5.63;;;;;;;13.90;73.63;99097.88;5135843;27;42606;-80
2022/10/08 00:08:45;;;;;;;9.07;8.13;;;;;;;13.88;74.24;99089.16;5134882;27;42294;-78
2022/10/08 00:11:16;;;;;;;8.53;7.63;;;;;;;13.84;75.08;99082.38;5135538;27;38887;-80
2022/10/08 00:13:46;;;;;;;6.93;6.23;;;;;;;13.94;75.58;99087.88;5118446;27;40581;-80
2022/10/08 00:16:17;;;;;;;9.23;8.03;;;;;;;13.96;76.78;99076.16;5118298;27;41749;-78
2022/10/08 00:18:48;;;;;;;10.00;7.73;;;;;;;14.01;77.20;99084.66;5118308;27;41251;-78
2022/10/08 00:21:21;;;;;;;9.63;8.30;;;;;;;13.90;77.19;99060.63;5135623;27;39751;-78
2022/10/08 00:23:50;;;;;;;13.30;8.30;;;;;;;14.00;77.14;99068.78;5150946;27;42706;-80
2022/10/08 00:26:22;;;;;;;8.97;7.33;;;;;;;14.08;77.15;99078.88;5135486;27;43680;-78
2022/10/08 00:28:51;;;;;;;10.87;7.83;;;;;;;14.11;77.56;99068.00;5150956;27;42167;-79
2022/10/08 00:31:22;;;;;;;8.30;7.43;;;;;;;14.15;77.52;99069.47;5118173;27;39084;-80
2022/10/08 00:33:53;;;;;;;9.77;8.57;;;;;;;14.14;77.43;99065.09;5132572;27;42745;-80
2022/10/08 00:36:22;;;;;;;8.87;7.43;;;;;;;14.18;77.18;99064.78;5150351;27;42476;-79
2022/10/08 00:38:55;;;;;;;9.00;6.90;;;;;;;14.21;76.97;99064.56;5135688;27;40971;-78
2022/10/08 00:41:26;;;;;;;8.40;6.83;;;;;;;14.17;76.74;99056.91;5166715;27;39935;-78
2022/10/08 00:43:55;;;;;;;7.67;5.90;;;;;;;14.22;76.58;99070.72;5154313;27;41517;-80
2022/10/08 00:46:27;;;;;;;7.63;5.93;;;;;;;14.12;76.15;99048.38;5136810;27;42468;-80
2022/10/08 00:49:02;;;;;;;10.63;7.60;;;;;;;14.26;75.70;99070.38;5138750;27;41015;-80
2022/10/08 00:51:32;;;;;;;6.40;5.80;;;;;;;14.23;75.61;99064.41;5170731;27;40071;-77
2022/10/08 00:54:01;;;;;;;7.00;5.90;;;;;;;14.26;75.37;99073.03;5121609;27;42181;-79
2022/10/08 00:56:32;;;;;;;5.87;5.37;;;;;;;14.26;75.43;99066.88;5138397;27;44501;-77
2022/10/08 00:59:01;;;;;;;7.77;5.93;;;;;;;14.25;75.16;99070.50;5121735;27;42394;-78
2022/10/08 01:01:29;;;;;;;5.97;5.37;;;;;;;14.12;75.09;99043.06;5121130;27;39983;-79
2022/10/08 01:04:05;;;;;;;8.73;5.73;;;;;;;14.20;74.74;99062.00;5138915;27;40665;-78
2022/10/08 01:06:44;;;;;;;6.30;5.13;;;;;;;14.19;74.62;99060.31;5138152;27;44658;-78
2022/10/08 01:09:15;;;;;;;7.97;5.20;;;;;;;14.15;74.81;99059.66;5121465;27;41467;-81
2022/10/08 01:11:49;;;;;;;7.27;5.70;;;;;;;14.11;74.82;99060.84;5121056;27;39010;-77
2022/10/08 01:14:40;;;;;;;6.63;5.03;;;;;;;14.11;75.06;99068.00;5121461;27;40905;-80
2022/10/08 01:17:18;;;;;;;7.67;6.60;;;;;;;14.13;74.70;99058.06;5155137;27;42791;-81
2022/10/08 01:20:28;;;;;;;6.07;5.13;;;;;;;14.19;74.83;99055.81;5135704;27;42365;-82
2022/10/08 01:23:31;;;;;;;5.77;4.83;;;;;;;14.26;74.73;99050.88;5120869;27;39235;-81
2022/10/08 01:26:11;;;;;;;6.00;5.40;;;;;;;14.30;74.09;99047.88;5093958;27;40873;-79
2022/10/08 01:28:43;;;;;;;6.97;4.63;;;;;;;14.34;74.46;99048.50;5120860;27;43864;-80
2022/10/08 01:31:17;;;;;;;4.80;4.40;;;;;;;14.39;74.42;99054.34;5153413;27;42062;-79
2022/10/08 01:33:50;;;;;;;6.87;5.37;;;;;;;14.40;74.38;99049.88;5155751;27;41812;-79
2022/10/08 01:36:20;;;;;;;7.17;6.47;;;;;;;14.39;74.67;99041.00;5121161;27;41816;-78
2022/10/08 01:38:52;;;;;;;6.50;5.80;;;;;;;14.48;74.41;99044.81;5137944;27;42743;-82
2022/10/08 01:41:22;;;;;;;6.10;5.50;;;;;;;14.49;74.57;99044.72;5137827;27;41700;-82
2022/10/08 01:43:59;;;;;;;8.10;6.80;;;;;;;14.51;74.08;99042.78;5138171;27;40111;-81
2022/10/08 01:46:30;;;;;;;6.30;4.70;;;;;;;14.52;74.17;99044.47;5153198;27;42713;-79
2022/10/08 01:49:03;;;;;;;5.00;4.47;;;;;;;14.54;73.85;99050.56;5134908;27;42835;-80
2022/10/08 01:51:34;;;;;;;4.67;4.27;;;;;;;14.54;73.79;99052.38;5120544;27;43803;-81
2022/10/08 01:54:06;;;;;;;5.63;4.80;;;;;;;14.59;73.82;99053.69;5153412;27;40073;-79
2022/10/08 01:56:37;;;;;;;7.00;5.63;;;;;;;14.61;74.08;99054.44;5136843;27;40401;-77
2022/10/08 01:59:10;;;;;;;6.60;5.50;;;;;;;14.62;74.18;99050.81;5120448;27;43042;-81
2022/10/08 02:01:51;;;;;;;5.97;4.57;;;;;;;14.62;73.95;99048.16;5120166;27;42284;-79
2022/10/08 02:04:35;;;;;;;5.77;5.27;;;;;;;14.62;74.07;99053.47;5120755;27;39184;-80
2022/10/08 02:07:07;;;;;;;5.97;5.33;;;;;;;14.61;74.53;99046.44;5137539;27;40722;-80
2022/10/08 02:09:37;;;;;;;6.17;5.50;;;;;;;14.60;74.36;99050.06;5134638;27;42991;-78
2022/10/08 02:12:06;;;;;;;6.07;5.27;;;;;;;14.63;74.06;99043.66;5120282;27;41537;-81
2022/10/08 02:14:37;;;;;;;5.97;5.37;;;;;;;14.64;74.47;99048.03;5138210;27;39885;-78
2022/10/08 02:17:20;;;;;;;6.83;6.20;;;;;;;14.62;74.34;99042.81;5137227;27;40948;-78
2022/10/08 02:19:54;;;;;;;6.37;5.77;;;;;;;14.64;74.37;99051.56;5134334;27;43847;-79
2022/10/08 02:22:26;;;;;;;6.13;5.50;;;;;;;14.67;74.64;99056.66;5153978;27;43262;-79
2022/10/08 02:25:00;;;;;;;6.63;5.40;;;;;;;14.62;74.54;99042.81;5137461;27;39167;-81
2022/10/08 02:27:35;;;;;;;6.13;4.90;;;;;;;14.70;74.49;99051.09;5137052;27;40903;-78
2022/10/08 02:30:08;;;;;;;6.53;5.37;;;;;;;14.72;74.15;99043.81;5120079;27;41469;-78
2022/10/08 02:32:41;;;;;;;5.23;4.73;;;;;;;14.76;74.39;99040.91;5120393;27;40793;-80
2022/10/08 02:35:14;;;;;;;5.57;4.93;;;;;;;14.78;74.35;99041.66;5169217;27;39786;-81
2022/10/08 02:37:45;;;;;;;6.47;5.23;;;;;;;14.83;74.33;99039.50;5137262;27;41783;-80
2022/10/08 02:40:17;;;;;;;5.97;5.23;;;;;;;14.68;74.18;99018.38;5119918;27;41904;-81
2022/10/08 02:42:51;;;;;;;5.53;4.93;;;;;;;14.90;73.97;99048.72;5136007;27;41942;-80
2022/10/08 02:45:24;;;;;;;5.67;4.70;;;;;;;14.93;73.78;99045.81;5137553;27;38664;-80
2022/10/08 02:47:57;;;;;;;5.53;5.03;;;;;;;14.86;73.81;99033.91;5137027;27;40720;-80
2022/10/08 02:50:28;;;;;;;5.47;4.93;;;;;;;14.76;74.14;99019.59;5134009;27;43357;-78
2022/10/08 02:52:57;;;;;;;7.37;4.73;;;;;;;15.02;74.15;99055.75;5136949;27;41145;-80
2022/10/08 02:55:36;;;;;;;6.13;5.53;;;;;;;15.03;74.21;99046.78;5155325;27;39928;-79
2022/10/08 02:58:08;;;;;;;6.23;5.27;;;;;;;15.04;74.27;99053.81;5136117;27;41685;-80
2022/10/08 03:00:41;;;;;;;9.10;6.63;;;;;;;15.02;74.76;99050.44;5152057;27;42823;-80
2022/10/08 03:03:12;;;;;;;6.83;5.80;;;;;;;15.05;74.76;99050.19;5135810;27;43129;-78
2022/10/08 03:05:42;;;;;;;5.73;5.13;;;;;;;14.90;74.26;99030.88;5133801;27;39856;-81
2022/10/08 03:08:14;;;;;;;5.87;5.07;;;;;;;14.96;74.76;99034.91;5136152;27;41684;-78
2022/10/08 03:10:44;;;;;;;7.87;6.40;;;;;;;15.12;74.80;99055.88;5133686;27;42691;-78
2022/10/08 03:13:13;;;;;;;5.90;5.30;;;;;;;15.11;74.63;99065.69;5154546;27;42417;-80
2022/10/08 03:15:43;;;;;;;6.07;5.43;;;;;;;15.09;74.41;99057.81;5119347;27;40224;-80
2022/10/08 03:18:12;;;;;;;6.60;5.67;;;;;;;15.11;74.12;99068.38;5153680;27;40444;-78
2022/10/08 03:20:43;;;;;;;6.93;5.93;;;;;;;15.12;74.58;99062.06;5153782;27;43124;-78
2022/10/08 03:23:13;;;;;;;5.67;5.13;;;;;;;14.89;74.31;99017.66;5118701;27;43089;-80
2022/10/08 03:25:41;;;;;;;5.87;5.27;;;;;;;15.08;74.74;99066.78;5154801;27;40891;-79
2022/10/08 03:28:08;;;;;;;5.40;4.90;;;;;;;15.11;74.49;99063.03;5154567;27;41672;-79
2022/10/08 03:30:36;;;;;;;5.67;5.00;;;;;;;14.83;74.21;99018.16;5136199;27;43131;-81
2022/10/08 03:33:06;;;;;;;5.13;4.63;;;;;;;15.06;74.36;99055.41;5142180;27;42814;-79
2022/10/08 03:35:34;;;;;;;5.57;5.07;;;;;;;15.12;74.56;99062.06;5148191;27;40430;-79
2022/10/08 03:38:01;;;;;;;6.00;5.07;;;;;;;15.14;74.42;99070.81;5166125;27;43236;-79
2022/10/08 03:40:29;;;;;;;6.83;6.07;;;;;;;15.12;74.94;99078.06;5165182;27;44170;-78
2022/10/08 03:42:57;;;;;;;6.40;5.70;;;;;;;15.09;75.04;99068.50;5166315;27;42144;-78
2022/10/08 03:45:25;;;;;;;5.27;4.80;;;;;;;15.15;74.75;99082.34;5125906;27;38768;-81
2022/10/08 03:47:52;;;;;;;7.10;5.80;;;;;;;15.13;74.88;99069.09;5136052;27;42457;-78
2022/10/08 03:50:22;;;;;;;5.90;5.30;;;;;;;15.16;74.95;99068.88;5136404;27;42901;-78
2022/10/08 03:52:50;;;;;;;5.57;5.07;;;;;;;15.16;74.77;99079.53;5118935;27;42894;-79
2022/10/08 03:55:18;;;;;;;5.73;5.13;;;;;;;15.18;74.98;99082.97;5119113;27;39305;-79
2022/10/08 03:57:46;;;;;;;6.40;5.33;;;;;;;15.19;74.70;99084.66;5154131;27;42490;-78
2022/10/08 04:00:14;;;;;;;6.30;5.67;;;;;;;15.21;75.24;99077.34;5135855;27;42482;-80
2022/10/08 04:02:41;;;;;;;6.57;5.77;;;;;;;15.16;75.50;99074.22;5135242;27;41329;-78
2022/10/08 04:05:09;;;;;;;9.70;6.90;;;;;;;15.03;75.79;99062.78;5136139;27;40966;-80
2022/10/08 04:07:39;;;;;;;10.47;6.03;;;;;;;15.07;75.89;99069.59;5135376;27;41046;-81
2022/10/08 04:10:07;;;;;;;5.80;5.30;;;;;;;15.15;75.83;99083.19;5154185;27;43786;-81
2022/10/08 04:12:35;;;;;;;6.10;5.50;;;;;;;15.09;75.79;99067.63;5170298;27;42150;-80
2022/10/08 04:15:03;;;;;;;6.23;5.63;;;;;;;15.16;75.82;99090.22;5136321;27;40011;-79
2022/10/08 04:17:31;;;;;;;5.87;5.27;;;;;;;15.14;75.38;99080.63;5153975;27;42255;-79
2022/10/08 04:19:58;;;;;;;6.70;5.97;;;;;;;15.12;75.46;99086.06;5136690;27;41757;-81
2022/10/08 04:22:26;;;;;;;6.77;6.07;;;;;;;15.03;76.01;99073.47;5139029;27;42583;-78
2022/10/08 04:24:55;;;;;;;8.07;7.27;;;;;;;15.06;76.21;99086.56;5122167;27;39020;-80
2022/10/08 04:27:23;;;;;;;7.60;6.00;;;;;;;14.98;76.21;99076.47;5121272;27;41598;-78
2022/10/08 04:29:50;;;;;;;6.30;5.70;;;;;;;14.84;76.14;99051.81;5139204;27;41976;-80
2022/10/08 04:32:18;;;;;;;8.77;6.60;;;;;;;15.06;75.89;99086.56;5139090;27;43240;-78
2022/10/08 04:34:46;;;;;;;9.13;8.03;;;;;;;14.96;76.31;99062.41;5174444;27;39891;-79
2022/10/08 04:37:14;;;;;;;8.80;7.90;;;;;;;15.01;76.31;99080.72;5138084;27;41967;-79
2022/10/08 04:39:41;;;;;;;7.23;6.53;;;;;;;15.00;76.22;99079.03;5121922;27;41784;-81
2022/10/08 04:42:10;;;;;;;7.33;6.50;;;;;;;15.01;76.33;99086.06;5155872;27;42437;-78
2022/10/08 04:44:38;;;;;;;7.53;5.90;;;;;;;15.03;76.38;99084.97;5138583;27;38599;-81
2022/10/08 04:47:06;;;;;;;5.97;5.47;;;;;;;15.06;75.81;99094.56;5138521;27;42645;-78
2022/10/08 04:49:33;;;;;;;7.10;5.63;;;;;;;15.08;75.98;99092.66;5138640;27;43519;-80
2022/10/08 04:52:01;;;;;;;6.87;5.90;;;;;;;15.07;76.29;99085.59;5121589;27;41153;-78
2022/10/08 04:54:29;;;;;;;7.97;7.17;;;;;;;15.03;76.30;99084.13;5139084;27;40641;-81
2022/10/08 04:56:56;;;;;;;7.20;6.50;;;;;;;14.92;76.63;99081.44;5155931;27;41811;-77
2022/10/08 04:59:26;;;;;;;6.77;6.10;;;;;;;14.97;76.64;99092.59;5121524;27;41739;-81
2022/10/08 05:01:55;;;;;;;8.63;6.67;;;;;;;14.93;76.31;99088.47;5121122;27;42278;-78
2022/10/08 05:04:23;;;;;;;6.33;5.73;;;;;;;14.91;76.58;99093.06;5120829;27;40139;-82
2022/10/08 05:06:51;;;;;;;8.73;6.60;;;;;;;14.99;76.43;99096.00;5138094;27;41752;-80
2022/10/08 05:09:18;;;;;;;7.70;6.37;;;;;;;14.91;76.76;99085.06;5121413;27;42878;-80
2022/10/08 05:11:46;;;;;;;7.90;7.10;;;;;;;14.91;76.93;99090.41;5120701;27;41393;-80
2022/10/08 05:14:14;;;;;;;10.17;7.30;;;;;;;14.88;76.99;99090.63;5156986;27;39909;-78
2022/10/08 05:16:43;;;;;;;10.87;7.17;;;;;;;14.81;77.45;99100.09;5172995;27;41846;-78
2022/10/08 05:19:11;;;;;;;7.07;6.37;;;;;;;14.72;77.77;99091.78;5138313;27;42267;-79
2022/10/08 05:21:39;;;;;;;7.33;6.53;;;;;;;14.63;77.68;99096.97;5156169;27;42430;-78
2022/10/08 05:24:08;;;;;;;7.80;6.40;;;;;;;14.51;77.67;99098.75;5135430;27;39987;-80
2022/10/08 05:26:38;;;;;;;7.20;6.50;;;;;;;14.42;77.48;99099.44;5137997;27;40803;-78
2022/10/08 05:29:06;;;;;;;6.50;5.90;;;;;;;14.37;77.58;99104.22;5120939;27;42371;-79
2022/10/08 05:31:36;;;;;;;6.73;6.03;;;;;;;14.31;77.75;99104.69;5154262;27;41164;-81
2022/10/08 05:34:05;;;;;;;6.63;5.90;;;;;;;14.26;77.85;99099.69;5155271;27;38812;-80
2022/10/08 05:36:34;;;;;;;6.70;6.10;;;;;;;14.21;77.90;99103.66;5120552;27;40436;-79
2022/10/08 05:39:03;;;;;;;7.07;6.37;;;;;;;14.15;77.72;99101.44;5120623;27;41948;-81
2022/10/08 05:41:33;;;;;;;6.63;5.50;;;;;;;14.11;77.77;99111.44;5137640;27;43233;-79
2022/10/08 05:44:02;;;;;;;7.20;6.50;;;;;;;13.85;77.74;99081.38;5137844;27;39741;-80
2022/10/08 05:46:31;;;;;;;8.77;6.13;;;;;;;14.06;77.83;99112.78;5137672;27;40691;-81
2022/10/08 05:49:00;;;;;;;6.47;5.87;;;;;;;13.94;78.06;99109.19;5156008;27;42993;-78
2022/10/08 05:51:30;;;;;;;7.73;6.77;;;;;;;14.05;77.85;99125.22;5137370;27;42530;-78
2022/10/08 05:53:59;;;;;;;8.10;6.97;;;;;;;14.05;78.16;99127.91;5120050;27;39747;-79
2022/10/08 05:56:30;;;;;;;9.57;7.27;;;;;;;14.00;78.59;99119.38;5137225;27;41679;-80
2022/10/08 05:58:58;;;;;;;6.60;5.97;;;;;;;14.09;78.85;99136.53;5134546;27;42457;-79
2022/10/08 06:01:28;;;;;;;7.37;6.33;;;;;;;14.12;78.81;99138.94;5172065;27;42264;-78
2022/10/08 06:03:57;;;;;;;7.87;5.33;;;;;;;14.14;78.76;99142.34;5120458;27;39833;-78
2022/10/08 06:06:26;;;;;;;9.43;6.70;;;;;;;14.09;79.14;99129.38;5154445;27;42325;-79
2022/10/08 06:08:57;;;;;;;9.07;7.03;;;;;;;14.25;78.98;99150.41;5137703;27;44158;-80
2022/10/08 06:11:25;;;;;;;9.07;6.83;;;;;;;14.25;78.97;99142.41;5134244;27;43181;-81
2022/10/08 06:13:54;;;;;;;9.80;6.37;;;;;;;14.38;79.50;99156.53;5120379;27;39240;-78
2022/10/08 06:16:22;;;;;;;9.43;7.07;;;;;;;14.47;79.46;99155.03;5171627;27;42792;-78
2022/10/08 06:18:50;;;;;;;8.30;6.70;;;;;;;14.47;79.39;99160.38;5136860;27;42489;-78
2022/10/08 06:21:20;;;;;;;11.43;6.43;;;;;;;14.55;79.31;99158.00;5119472;27;41762;-78
2022/10/08 06:23:48;;;;;;;8.17;5.90;;;;;;;14.59;79.05;99170.97;5119966;27;38822;-81
2022/10/08 06:26:18;;;;;;;6.70;5.13;;;;;;;14.56;78.83;99163.22;5137387;27;41748;-80
2022/10/08 06:28:46;;;;;;;6.37;5.13;;;;;;;14.69;78.49;99171.16;5136964;27;41822;-79
2022/10/08 06:31:14;;;;;;;7.70;4.67;;;;;;;14.73;78.06;99178.81;5137071;27;42483;-80
2022/10/08 06:33:42;;;;;;;8.13;4.67;;;;;;;14.78;77.81;99185.63;5137237;27;38532;-79
2022/10/08 06:36:14;;;;;;;5.07;3.73;;;;;;;14.89;77.14;99183.84;5172089;27;41440;-81
2022/10/08 06:38:42;;;;;;;6.70;4.47;;;;;;;14.84;76.33;99158.47;5136892;27;43086;-79
2022/10/08 06:41:10;;;;;;;6.33;3.87;;;;;;;15.20;75.47;99187.75;5119541;27;42595;-80
2022/10/08 06:43:39;;;;;;;9.90;3.80;;;;;;;15.66;73.55;99200.25;5152726;27;38603;-78
2022/10/08 06:46:07;;;;;;;7.67;3.87;;;;;;;16.05;71.82;99202.44;5119390;27;43411;-81
2022/10/08 06:48:35;;;;;;;4.77;3.57;;;;;;;16.33;70.61;99205.56;5155243;27;43466;-79
2022/10/08 06:51:05;;;;;;;4.53;2.77;;;;;;;16.63;69.49;99202.28;5136629;27;41456;-78
2022/10/08 06:53:34;;;;;;;5.40;3.07;;;;;;;16.76;68.64;99176.22;5136536;27;41001;-79
2022/10/08 06:56:04;;;;;;;5.03;3.10;;;;;;;17.27;67.32;99224.53;5155231;27;42706;-79
2022/10/08 06:58:32;;;;;;;3.40;2.73;;;;;;;17.43;66.14;99237.50;5136233;27;41801;-80
2022/10/08 07:01:07;;;;;;;3.67;3.23;;;;;;;17.44;65.85;99240.00;5119313;27;40881;-79
2022/10/08 07:03:35;;;;;;;5.57;2.90;;;;;;;17.49;65.59;99229.78;5119004;27;38963;-78
2022/10/08 07:06:05;;;;;;;3.50;2.97;;;;;;;17.65;65.05;99234.72;5154922;27;41425;-79
2022/10/08 07:08:32;;;;;;;3.57;2.43;;;;;;;17.83;64.40;99234.94;5154319;27;43821;-79
2022/10/08 07:11:04;;;;;;;3.53;2.43;;;;;;;18.00;63.95;99242.38;5119147;27;43749;-78
2022/10/08 07:13:32;;;;;;;5.60;2.77;;;;;;;18.03;63.47;99250.16;5118549;27;40297;-78
2022/10/08 07:16:07;;;;;;;5.23;3.33;;;;;;;18.04;62.90;99259.06;5118919;27;41071;-78
2022/10/08 07:18:36;;;;;;;3.60;2.67;;;;;;;17.98;63.31;99255.06;5118720;27;43094;-78
2022/10/08 07:21:05;;;;;;;4.80;2.67;;;;;;;17.80;63.75;99249.44;5118539;27;41294;-79
2022/10/08 07:23:33;;;;;;;4.77;2.93;;;;;;;17.63;63.22;99246.50;5135645;27;39908;-78
2022/10/08 07:26:03;;;;;;;4.40;2.70;;;;;;;17.52;63.37;99267.00;5154661;27;41509;-78
2022/10/08 07:28:33;;;;;;;5.07;2.20;;;;;;;17.43;63.64;99258.91;5118505;27;41692;-78
2022/10/08 07:31:05;;;;;;;4.20;2.43;;;;;;;17.33;63.79;99269.53;5118824;27;41200;-78
2022/10/08 07:33:33;;;;;;;4.20;2.13;;;;;;;17.18;64.00;99252.09;5135968;27;38910;-78
2022/10/08 07:36:09;;;;;;;3.33;2.20;;;;;;;17.18;64.26;99262.78;5118894;27;41955;-78
2022/10/08 07:38:36;;;;;;;3.33;2.53;;;;;;;17.04;64.30;99260.41;5136082;27;43175;-77
2022/10/08 07:41:04;;;;;;;3.50;2.27;;;;;;;17.12;64.13;99268.63;5170706;27;42452;-77
2022/10/08 07:43:32;;;;;;;4.43;3.00;;;;;;;17.22;63.85;99269.56;5152603;27;39366;-78
2022/10/08 07:46:00;;;;;;;4.03;2.50;;;;;;;17.28;64.06;99263.72;5118472;27;40609;-78
2022/10/08 07:48:30;;;;;;;3.90;2.60;;;;;;;17.37;63.51;99257.59;5135099;27;41907;-79
2022/10/08 07:51:07;;;;;;;2.87;2.57;;;;;;;17.67;63.05;99280.13;5118602;27;43411;-78
2022/10/08 07:53:35;;;;;;;5.60;2.50;;;;;;;17.89;62.78;99274.63;5118604;27;40164;-77
2022/10/08 07:56:03;;;;;;;3.37;2.60;;;;;;;18.10;61.83;99278.13;5117918;27;42006;-79
2022/10/08 07:58:31;;;;;;;6.20;2.73;;;;;;;18.29;61.59;99288.97;5134958;27;42599;-79
2022/10/08 08:01:00;;;;;;;4.23;2.70;;;;;;;18.30;60.94;99290.63;5154256;27;42135;-79
2022/10/08 08:03:30;;;;;;;4.30;2.60;;;;;;;18.16;60.88;99269.56;5135409;27;39767;-78
2022/10/08 08:06:02;;;;;;;4.57;2.63;;;;;;;18.35;60.54;99297.44;5136623;27;20231;-79
2022/10/08 08:08:29;;;;;;;3.93;2.30;;;;;;;18.60;59.67;99299.69;5152419;27;41770;-79
2022/10/08 08:10:58;;;;;;;3.70;2.40;;;;;;;18.71;57.45;99326.41;5135480;27;42096;-79
2022/10/08 08:13:26;;;;;;;5.27;1.93;;;;;;;18.80;57.70;99314.84;5154019;27;41255;-78
2022/10/08 08:15:58;;;;;;;4.03;2.10;;;;;;;18.93;57.49;99318.16;5154231;27;41652;-78
2022/10/08 08:18:30;;;;;;;5.10;1.90;;;;;;;19.21;55.82;99329.09;5135351;27;42963;-78
2022/10/08 08:20:59;;;;;;;7.13;2.27;;;;;;;19.73;54.60;99328.72;5150607;27;42994;-78
2022/10/08 08:23:31;;;;;;;6.13;2.30;;;;;;;20.13;52.56;99354.59;5113142;27;39290;-78
2022/10/08 08:26:00;;;;;;;5.23;2.00;;;;;;;20.23;52.54;99339.28;5131802;27;41966;-79
2022/10/08 08:28:28;;;;;;;5.63;1.93;;;;;;;20.51;51.67;99353.69;5132588;27;43744;-77
2022/10/08 08:31:05;;;;;;;5.30;2.10;;;;;;;21.17;51.36;99340.88;5114828;27;43173;-79
2022/10/08 08:33:35;;;;;;;3.00;1.77;;;;;;;21.92;48.80;99368.44;5131602;27;40851;-80
2022/10/08 08:36:03;;;;;;;6.97;2.07;;;;;;;22.07;48.32;99369.63;5131647;27;41574;-79
2022/10/08 08:38:31;;;;;;;5.27;1.80;;;;;;;22.21;47.72;99376.31;5114437;27;41729;-78
2022/10/08 08:41:08;;;;;;;4.80;1.80;;;;;;;22.19;47.43;99375.59;5114044;27;41551;-79
2022/10/08 08:43:36;;;;;;;6.00;2.47;;;;;;;22.12;47.81;99379.94;5131260;27;40039;-79
2022/10/08 08:46:04;;;;;;;4.03;1.60;;;;;;;21.92;47.89;99367.59;5132501;27;41535;-76
2022/10/08 08:48:36;;;;;;;6.17;3.10;;;;;;;22.03;48.84;99381.72;5113973;27;41840;-81
2022/10/08 08:51:05;;;;;;;4.80;2.03;;;;;;;22.51;47.41;99396.56;5132230;27;42483;-78
2022/10/08 08:53:34;;;;;;;5.23;1.80;;;;;;;23.59;45.62;99404.06;5120342;27;40906;-80
2022/10/08 08:56:05;;;;;;;3.40;1.70;;;;;;;24.26;43.70;99415.66;5130676;27;42265;-79
2022/10/08 08:58:39;;;;;;;6.20;2.20;;;;;;;23.95;43.75;99408.19;5113272;27;43109;-81
2022/10/08 09:01:18;;;;;;;4.30;1.90;;;;;;;23.65;43.71;99406.09;5096742;27;42428;-79
2022/10/08 09:03:51;;;;;;;6.10;1.70;;;;;;;23.23;43.59;99425.91;5129105;27;40089;-81
2022/10/08 09:06:24;;;;;;;2.67;1.60;;;;;;;23.20;44.53;99415.41;5130450;27;41701;-78
2022/10/08 09:08:56;;;;;;;3.77;1.70;;;;;;;23.48;43.41;99415.16;5132371;27;43784;-80
2022/10/08 09:11:25;;;;;;;6.30;2.20;;;;;;;23.85;42.70;99426.44;5122733;27;43184;-77
2022/10/08 09:13:58;;;;;;;4.07;2.07;;;;;;;23.98;42.42;99415.94;5144629;27;39930;-82
2022/10/08 09:16:27;;;;;;;3.77;1.77;;;;;;;24.22;41.50;99433.25;5099763;27;40676;-80
2022/10/08 09:18:57;;;;;;;4.03;1.83;;;;;;;24.32;41.98;99417.72;5130091;27;43318;-81
2022/10/08 09:21:25;;;;;;;4.00;1.90;;;;;;;24.17;41.62;99435.59;5123361;27;39958;-79
2022/10/08 09:23:53;;;;;;;3.73;1.63;;;;;;;23.63;42.40;99418.94;5141025;27;40921;-79
2022/10/08 09:26:22;;;;;;;4.23;1.77;;;;;;;23.69;42.57;99420.16;5137548;27;42378;-79
2022/10/08 09:28:52;;;;;;;5.70;1.70;;;;;;;23.69;42.08;99430.97;5137575;27;43468;-79
2022/10/08 09:31:24;;;;;;;4.47;1.73;;;;;;;23.76;41.94;99434.69;5137020;27;43852;-81
2022/10/08 09:34:00;;;;;;;5.10;1.80;;;;;;;23.61;42.93;99431.81;5137946;27;39186;-81
2022/10/08 09:36:35;;;;;;;5.03;1.97;;;;;;;23.19;43.14;99426.38;5136723;27;40905;-76
2022/10/08 09:39:05;;;;;;;5.43;1.87;;;;;;;22.86;43.51;99422.66;5134313;27;43662;-80
2022/10/08 09:41:34;;;;;;;5.30;1.87;;;;;;;22.74;43.59;99429.31;5153782;27;41987;-78
2022/10/08 09:44:12;;;;;;;5.13;1.70;;;;;;;22.61;44.15;99420.78;5137288;27;39137;-79
2022/10/08 09:46:40;;;;;;;2.77;1.57;;;;;;;22.54;44.08;99418.72;5136469;27;40754;-77
2022/10/08 09:49:29;;;;;;;4.13;1.60;;;;;;;22.60;43.94;99424.50;5136593;27;41190;-79
2022/10/08 09:52:01;;;;;;;3.13;1.70;;;;;;;22.61;44.61;99413.53;5119414;27;40982;-77
2022/10/08 09:54:32;;;;;;;5.53;1.53;;;;;;;22.26;44.73;99365.03;5137596;27;38940;-80
2022/10/08 09:57:01;;;;;;;3.27;1.40;;;;;;;22.49;43.96;99415.66;5134483;27;42736;-79
2022/10/08 09:59:31;;;;;;;3.63;1.37;;;;;;;22.84;44.07;99409.31;5137077;27;43040;-80
2022/10/08 10:01:59;;;;;;;4.03;1.53;;;;;;;23.46;43.00;99414.47;5136592;27;42333;-78
2022/10/08 10:04:36;;;;;;;5.10;1.77;;;;;;;23.97;40.90;99425.09;5119939;27;38560;-77
2022/10/08 10:07:05;;;;;;;2.87;1.13;;;;;;;24.64;40.36;99408.69;5134715;27;41624;-78
2022/10/08 10:09:41;;;;;;;4.50;1.47;;;;;;;25.69;39.12;99443.63;5155381;27;43515;-80
2022/10/08 10:12:21;;;;;;;6.37;1.80;;;;;;;26.20;36.99;99453.97;5119025;27;41004;-79
2022/10/08 10:14:53;;;;;;;3.33;1.60;;;;;;;25.94;37.76;99444.31;5138806;27;40952;-78
2022/10/08 10:17:31;;;;;;;3.80;1.27;;;;;;;25.74;37.56;99437.63;5136031;27;40538;-79
2022/10/08 10:20:05;;;;;;;2.77;1.20;;;;;;;25.85;37.39;99461.66;5133682;27;42687;-79
2022/10/08 10:22:38;;;;;;;3.00;1.50;;;;;;;26.01;37.11;99450.69;5144014;27;42321;-79
2022/10/08 10:25:17;;;;;;;4.43;1.50;;;;;;;26.10;37.34;99449.59;5115936;27;39087;-77
2022/10/08 10:27:52;;;;;;;2.93;1.10;;;;;;;26.09;37.77;99431.63;5117721;27;41213;-78
2022/10/08 10:30:22;;;;;;;4.07;1.50;;;;;;;26.28;36.03;99452.06;5142998;27;42866;-77
2022/10/08 10:32:58;;;;;;;3.13;1.37;;;;;;;26.25;36.11;99457.81;5136350;27;42351;-79
2022/10/08 10:35:29;;;;;;;3.23;1.40;;;;;;;27.04;35.64;99436.59;5150851;27;39982;-78
2022/10/08 10:38:03;;;;;;;4.60;1.40;;;;;;;28.39;34.38;99448.72;5135974;27;40415;-79
2022/10/08 10:40:46;;;;;;;3.53;1.20;;;;;;;30.67;30.03;99483.91;5117848;27;41663;-79
2022/10/08 10:43:40;;;;;;;4.17;1.03;;;;;;;32.35;28.04;99500.34;5114467;27;42663;-80
2022/10/08 10:46:19;;;;;;;2.93;1.33;;;;;;;33.89;26.54;99494.91;5132046;27;40521;-82
2022/10/08 10:48:47;;;;;;;2.47;1.17;;;;;;;35.34;24.38;99505.63;5147650;27;41916;-79
2022/10/08 10:51:32;;;;;;;3.57;1.13;;;;;;;34.84;24.35;99499.72;5133549;27;42627;-81
2022/10/08 10:54:09;;;;;;;2.50;1.10;;;;;;;33.67;25.25;99496.44;5131054;27;42687;-79
2022/10/08 10:56:41;;;;;;;1.80;0.97;;;;;;;32.05;26.62;99496.50;5149414;27;40023;-78
2022/10/08 10:59:26;;;;;;;1.57;1.00;;;;;;;31.38;27.52;99474.00;5116673;27;40641;-79
2022/10/08 11:02:00;;;;;;;1.93;0.97;;;;;;;30.38;28.41;99479.69;5128462;27;41936;-81
2022/10/08 11:04:41;;;;;;;3.77;1.00;;;;;;;29.36;29.61;99468.75;5146117;27;42923;-80
2022/10/08 11:07:39;;;;;;;4.73;1.43;;;;;;;31.09;28.13;99474.47;5111843;27;39200;-79
2022/10/08 11:10:18;;;;;;;2.97;1.07;;;;;;;33.32;25.62;99485.22;5111748;27;41578;-77
2022/10/08 11:12:55;;;;;;;2.40;1.17;;;;;;;33.81;24.31;99511.72;5131958;27;42899;-79
2022/10/08 11:15:31;;;;;;;2.37;1.20;;;;;;;31.95;26.69;99494.22;5131437;27;41034;-78
2022/10/08 11:18:18;;;;;;;2.47;1.17;;;;;;;30.92;28.21;99476.75;5152956;27;40132;-77
2022/10/08 11:21:00;;;;;;;2.47;1.13;;;;;;;31.91;28.40;99475.69;5150635;27;41717;-77
2022/10/08 11:23:52;;;;;;;2.67;1.20;;;;;;;32.63;27.83;99478.00;5134976;27;42739;-79
2022/10/08 11:26:29;;;;;;;1.93;1.00;;;;;;;33.98;25.30;99489.13;5126758;27;42193;-78
2022/10/08 11:29:06;;;;;;;1.53;1.07;;;;;;;33.74;24.48;99499.13;5156843;27;41293;-79
2022/10/08 11:31:39;;;;;;;3.53;1.23;;;;;;;32.70;25.50;99481.53;5148040;27;42389;-79
2022/10/08 11:34:21;;;;;;;2.63;1.00;;;;;;;31.46;26.47;99477.53;5114616;27;42165;-79
2022/10/08 11:37:01;;;;;;;3.60;1.30;;;;;;;30.32;27.34;99475.88;5113008;27;41615;-80
2022/10/08 11:39:37;;;;;;;3.17;1.10;;;;;;;29.39;28.37;99473.84;5113411;27;38839;-78
2022/10/08 11:42:14;;;;;;;3.63;1.53;;;;;;;28.55;29.85;99453.91;5129527;27;40875;-77
2022/10/08 11:44:42;;;;;;;4.13;1.27;;;;;;;28.13;30.89;99461.03;5129213;27;42786;-78
2022/10/08 11:47:47;;;;;;;2.43;1.07;;;;;;;27.76;31.14;99458.50;5117786;27;41814;-79
2022/10/08 11:50:32;;;;;;;2.33;0.90;;;;;;;27.05;32.46;99438.28;5150424;27;40678;-78
2022/10/08 11:53:17;;;;;;;2.40;1.00;;;;;;;26.51;33.07;99440.31;5135476;27;43149;-77
2022/10/08 11:55:52;;;;;;;1.67;0.90;;;;;;;25.96;34.25;99436.84;5135241;27;42064;-77